Time;durP1;ratioP1;P1;durP2;ratioP2;P2;SDS_P1;SDS_P2;PMS_P1;PMS_P2;Temp;Humidity;BMP_temperature;BMP_pressure;BME280_temperature;BME280_humidity;BME280_pressure;Samples;Min_cycle;Max_cycle;Signal;HPM_P1;HPM_P2
2022/02/15 00:02:25;;;;;;;0.63;0.40;;;;;;;;;;5072865;28;20027;-54
2022/02/15 00:04:51;;;;;;;1.50;0.30;;;;;;;;;;5072300;28;20048;-46
2022/02/15 00:07:17;;;;;;;0.77;0.43;;;;;;;;;;5072909;28;20063;-47
2022/02/15 00:09:43;;;;;;;0.60;0.40;;;;;;;;;;5071783;28;20464;-47
2022/02/15 00:12:09;;;;;;;0.75;0.30;;;;;;;;;;5072447;28;20022;-49
2022/02/15 00:14:35;;;;;;;0.65;0.30;;;;;;;;;;5071514;28;20029;-48
2022/02/15 00:17:01;;;;;;;1.85;0.30;;;;;;;;;;5054744;28;20037;-47
2022/02/15 00:19:27;;;;;;;0.90;0.40;;;;;;;;;;5072076;28;20047;-53
2022/02/15 00:21:55;;;;;;;0.80;0.63;;;;;;;;;;5072704;28;20363;-47
2022/02/15 00:24:21;;;;;;;1.67;0.32;;;;;;;;;;5072647;28;20071;-47
2022/02/15 00:26:48;;;;;;;1.48;0.50;;;;;;;;;;5068731;28;20052;-51
2022/02/15 00:29:14;;;;;;;0.70;0.38;;;;;;;;;;5070250;28;20025;-48
2022/02/15 00:31:40;;;;;;;1.02;0.60;;;;;;;;;;5071228;28;20077;-47
2022/02/15 00:34:06;;;;;;;0.40;0.40;;;;;;;;;;5069844;28;20040;-47
2022/02/15 00:36:32;;;;;;;0.35;0.30;;;;;;;;;;5072210;28;20453;-51
2022/02/15 00:38:58;;;;;;;1.15;0.30;;;;;;;;;;5093952;28;20024;-47
2022/02/15 00:41:24;;;;;;;0.70;0.30;;;;;;;;;;5093512;28;20024;-48
2022/02/15 00:43:50;;;;;;;0.30;0.30;;;;;;;;;;5093649;28;20043;-47
2022/02/15 00:46:16;;;;;;;1.08;0.40;;;;;;;;;;5094140;28;20035;-47
2022/02/15 00:48:42;;;;;;;1.15;0.40;;;;;;;;;;5093469;28;20016;-47
2022/02/15 00:51:08;;;;;;;1.65;0.50;;;;;;;;;;5094259;28;20023;-48
2022/02/15 00:53:34;;;;;;;0.52;0.32;;;;;;;;;;5092936;28;20016;-47
2022/02/15 00:56:00;;;;;;;0.40;0.22;;;;;;;;;;5094177;28;20024;-48
2022/02/15 00:58:26;;;;;;;0.30;0.30;;;;;;;;;;5093537;28;20130;-54
2022/02/15 01:00:52;;;;;;;0.90;0.40;;;;;;;;;;5094552;28;20028;-48
2022/02/15 01:03:19;;;;;;;0.80;0.22;;;;;;;;;;5095017;28;20027;-48
2022/02/15 01:05:45;;;;;;;0.80;0.40;;;;;;;;;;5093444;28;20043;-50
2022/02/15 01:08:14;;;;;;;1.08;0.45;;;;;;;;;;5093546;28;20020;-48
2022/02/15 01:10:40;;;;;;;1.15;0.70;;;;;;;;;;5091788;28;20031;-46
2022/02/15 01:13:06;;;;;;;1.67;0.70;;;;;;;;;;5093950;28;20035;-47
2022/02/15 01:15:33;;;;;;;0.40;0.32;;;;;;;;;;5092707;28;20047;-50
2022/02/15 01:17:59;;;;;;;0.63;0.32;;;;;;;;;;5093566;28;20112;-48
2022/02/15 01:20:25;;;;;;;0.32;0.30;;;;;;;;;;5093288;28;20099;-48
2022/02/15 01:22:51;;;;;;;1.88;0.50;;;;;;;;;;5092737;28;20035;-47
2022/02/15 01:25:17;;;;;;;0.30;0.30;;;;;;;;;;5093371;28;20098;-50
2022/02/15 01:27:43;;;;;;;0.95;0.30;;;;;;;;;;5092705;28;20086;-47
2022/02/15 01:30:09;;;;;;;0.35;0.30;;;;;;;;;;5093838;28;20476;-48
2022/02/15 01:32:35;;;;;;;0.60;0.40;;;;;;;;;;5092141;28;20020;-48
2022/02/15 01:35:01;;;;;;;0.55;0.40;;;;;;;;;;5093434;28;20036;-48
2022/02/15 01:37:27;;;;;;;1.92;0.40;;;;;;;;;;5084464;28;20056;-55
2022/02/15 01:39:53;;;;;;;0.75;0.40;;;;;;;;;;5072586;28;20113;-49
2022/02/15 01:42:20;;;;;;;0.30;0.30;;;;;;;;;;5071721;28;20044;-51
2022/02/15 01:44:46;;;;;;;1.38;0.40;;;;;;;;;;5071325;28;20466;-50
2022/02/15 01:47:26;;;;;;;0.50;0.28;;;;;;;;;;5073019;28;20108;-50
2022/02/15 01:49:52;;;;;;;1.02;0.63;;;;;;;;;;5072289;28;20127;-50
2022/02/15 01:52:20;;;;;;;0.70;0.35;;;;;;;;;;5071727;28;20471;-52
2022/02/15 01:54:47;;;;;;;0.75;0.52;;;;;;;;;;5071176;28;20059;-51
2022/02/15 01:57:13;;;;;;;0.93;0.60;;;;;;;;;;5072529;28;20025;-49
2022/02/15 01:59:39;;;;;;;0.57;0.32;;;;;;;;;;5072045;28;20116;-50
2022/02/15 02:02:05;;;;;;;1.33;0.50;;;;;;;;;;5072124;28;20440;-50
2022/02/15 02:07:16;;;;;;;1.05;0.55;;;;;;;;;;5072265;28;20078;-48
2022/02/15 02:09:42;;;;;;;0.40;0.38;;;;;;;;;;5071553;28;20035;-50
2022/02/15 02:12:08;;;;;;;1.42;0.68;;;;;;;;;;5071816;28;20025;-50
2022/02/15 02:14:34;;;;;;;0.30;0.30;;;;;;;;;;5071293;28;20363;-52
2022/02/15 02:17:01;;;;;;;1.92;0.35;;;;;;;;;;5054620;28;20025;-53
2022/02/15 02:19:26;;;;;;;0.32;0.32;;;;;;;;;;5072086;28;20020;-51
2022/02/15 02:21:54;;;;;;;1.55;0.32;;;;;;;;;;5071173;28;20024;-53
2022/02/15 02:24:20;;;;;;;0.73;0.38;;;;;;;;;;5072003;28;20431;-51
2022/02/15 02:26:47;;;;;;;0.70;0.50;;;;;;;;;;5071234;28;20024;-50
2022/02/15 02:29:13;;;;;;;0.90;0.47;;;;;;;;;;5071930;28;20500;-47
2022/02/15 02:31:38;;;;;;;0.70;0.40;;;;;;;;;;5071162;28;20036;-47
2022/02/15 02:34:04;;;;;;;0.30;0.30;;;;;;;;;;5072129;28;20040;-51
2022/02/15 02:36:41;;;;;;;1.17;0.40;;;;;;;;;;5071446;28;20020;-56
2022/02/15 02:39:07;;;;;;;0.60;0.40;;;;;;;;;;5071556;28;20029;-47
2022/02/15 02:41:33;;;;;;;0.65;0.47;;;;;;;;;;5071261;28;20031;-54
2022/02/15 02:43:59;;;;;;;0.30;0.20;;;;;;;;;;5071954;28;20032;-48
2022/02/15 02:46:25;;;;;;;0.50;0.40;;;;;;;;;;5072051;28;20382;-47
2022/02/15 02:48:51;;;;;;;0.60;0.40;;;;;;;;;;5070992;28;20020;-49
2022/02/15 02:51:17;;;;;;;0.88;0.30;;;;;;;;;;5072047;28;20047;-50
2022/02/15 02:53:42;;;;;;;0.57;0.43;;;;;;;;;;5070599;28;20028;-47
2022/02/15 02:56:09;;;;;;;0.68;0.50;;;;;;;;;;5071052;28;20048;-50
2022/02/15 02:58:35;;;;;;;0.50;0.35;;;;;;;;;;5070968;28;20347;-49
2022/02/15 03:01:01;;;;;;;0.52;0.52;;;;;;;;;;5071579;28;20035;-49
2022/02/15 03:03:27;;;;;;;0.98;0.75;;;;;;;;;;5071118;28;20013;-47
2022/02/15 03:05:54;;;;;;;2.50;0.70;;;;;;;;;;5071143;28;20115;-47
2022/02/15 03:08:20;;;;;;;0.40;0.32;;;;;;;;;;5071257;28;20024;-51
2022/02/15 03:10:46;;;;;;;0.63;0.35;;;;;;;;;;5070805;28;20457;-48
2022/02/15 03:13:12;;;;;;;1.00;0.60;;;;;;;;;;5071197;28;20029;-47
2022/02/15 03:15:38;;;;;;;0.90;0.43;;;;;;;;;;5070550;28;20024;-47
2022/02/15 03:18:04;;;;;;;0.28;0.20;;;;;;;;;;5071745;28;20070;-49
2022/02/15 03:20:30;;;;;;;0.63;0.35;;;;;;;;;;5071280;28;20485;-53
2022/02/15 03:22:56;;;;;;;0.63;0.40;;;;;;;;;;5071053;28;20033;-49
2022/02/15 03:25:22;;;;;;;1.88;0.30;;;;;;;;;;5071403;28;20056;-49
2022/02/15 03:27:48;;;;;;;0.73;0.30;;;;;;;;;;5052730;28;20411;-49
2022/02/15 03:30:14;;;;;;;0.30;0.30;;;;;;;;;;5071644;28;20029;-48
2022/02/15 03:32:42;;;;;;;0.63;0.50;;;;;;;;;;5070541;28;20024;-50
2022/02/15 03:35:08;;;;;;;0.30;0.20;;;;;;;;;;5071534;28;20032;-48
2022/02/15 03:37:34;;;;;;;0.20;0.20;;;;;;;;;;5070430;28;20059;-56
2022/02/15 03:40:00;;;;;;;0.60;0.43;;;;;;;;;;5070707;28;20021;-49
2022/02/15 03:45:11;;;;;;;0.50;0.28;;;;;;;;;;5071231;28;20405;-48
2022/02/15 03:47:37;;;;;;;0.50;0.40;;;;;;;;;;5070249;28;20440;-47
2022/02/15 03:50:03;;;;;;;0.80;0.60;;;;;;;;;;5071471;28;20115;-50
2022/02/15 03:52:29;;;;;;;0.40;0.35;;;;;;;;;;5071128;28;20024;-49
2022/02/15 03:54:55;;;;;;;0.50;0.40;;;;;;;;;;5070295;28;20024;-47
2022/02/15 03:57:21;;;;;;;0.88;0.40;;;;;;;;;;5071629;28;20089;-46
2022/02/15 03:59:47;;;;;;;1.40;0.40;;;;;;;;;;5070110;28;20066;-47
2022/02/15 04:02:13;;;;;;;0.73;0.40;;;;;;;;;;5070349;28;20020;-47
2022/02/15 04:04:39;;;;;;;1.20;0.40;;;;;;;;;;5070406;28;20089;-47
2022/02/15 04:07:05;;;;;;;1.20;0.47;;;;;;;;;;5072540;28;20039;-47
2022/02/15 04:09:31;;;;;;;0.35;0.30;;;;;;;;;;5074478;28;20032;-48
2022/02/15 04:11:57;;;;;;;0.40;0.30;;;;;;;;;;5074105;28;20032;-47
2022/02/15 04:14:23;;;;;;;1.13;0.40;;;;;;;;;;5074084;28;20037;-47
2022/02/15 04:16:49;;;;;;;3.00;0.57;;;;;;;;;;5073955;28;20029;-47
2022/02/15 04:19:15;;;;;;;0.70;0.38;;;;;;;;;;5074042;28;20035;-47
2022/02/15 04:21:41;;;;;;;1.13;0.50;;;;;;;;;;5073691;28;20052;-46
2022/02/15 04:24:07;;;;;;;0.40;0.40;;;;;;;;;;5074537;28;20060;-49
2022/02/15 04:26:33;;;;;;;0.80;0.38;;;;;;;;;;5074197;28;20025;-53
2022/02/15 04:28:59;;;;;;;0.45;0.43;;;;;;;;;;5073655;28;20031;-47
2022/02/15 04:31:25;;;;;;;0.40;0.40;;;;;;;;;;5074518;28;20021;-48
2022/02/15 04:33:51;;;;;;;0.50;0.40;;;;;;;;;;5073220;28;20492;-47
2022/02/15 04:36:17;;;;;;;0.75;0.40;;;;;;;;;;5074391;28;20028;-48
2022/02/15 04:38:43;;;;;;;0.60;0.30;;;;;;;;;;5072794;28;20045;-48
2022/02/15 04:41:09;;;;;;;0.68;0.40;;;;;;;;;;5074155;28;20070;-46
2022/02/15 04:43:35;;;;;;;0.70;0.40;;;;;;;;;;5073447;28;20020;-54
2022/02/15 04:46:01;;;;;;;0.77;0.45;;;;;;;;;;5073730;28;20020;-47
2022/02/15 04:48:27;;;;;;;2.30;0.40;;;;;;;;;;5073889;28;20056;-47
2022/02/15 04:50:53;;;;;;;0.60;0.60;;;;;;;;;;5073352;28;20016;-47
2022/02/15 04:53:19;;;;;;;0.70;0.43;;;;;;;;;;5073887;28;20377;-47
2022/02/15 04:55:45;;;;;;;0.40;0.40;;;;;;;;;;5072678;28;20473;-47
2022/02/15 04:58:11;;;;;;;0.82;0.45;;;;;;;;;;5073787;28;20033;-47
2022/02/15 05:00:37;;;;;;;0.90;0.30;;;;;;;;;;5072835;28;20390;-55
2022/02/15 05:03:03;;;;;;;0.77;0.50;;;;;;;;;;5073527;28;20032;-48
2022/02/15 05:05:30;;;;;;;0.75;0.40;;;;;;;;;;5073710;28;20033;-47
2022/02/15 05:07:56;;;;;;;0.80;0.40;;;;;;;;;;5072990;28;20114;-47
2022/02/15 05:10:22;;;;;;;1.00;0.40;;;;;;;;;;5073639;28;20028;-47
2022/02/15 05:12:48;;;;;;;0.60;0.40;;;;;;;;;;5054736;28;20036;-47
2022/02/15 05:15:14;;;;;;;0.63;0.35;;;;;;;;;;5073733;28;20117;-48
2022/02/15 05:17:44;;;;;;;0.60;0.40;;;;;;;;;;5072844;28;20024;-47
2022/02/15 05:20:10;;;;;;;0.75;0.30;;;;;;;;;;5072983;28;20052;-49
2022/02/15 05:22:36;;;;;;;0.60;0.40;;;;;;;;;;5072534;28;20106;-54
2022/02/15 05:25:02;;;;;;;0.40;0.25;;;;;;;;;;5073125;28;20060;-48
2022/02/15 05:27:28;;;;;;;0.82;0.30;;;;;;;;;;5072970;28;20031;-47
2022/02/15 05:29:54;;;;;;;2.15;0.32;;;;;;;;;;5062897;28;20047;-47
2022/02/15 05:32:20;;;;;;;1.30;0.75;;;;;;;;;;5063216;28;20407;-48
2022/02/15 05:34:46;;;;;;;0.40;0.40;;;;;;;;;;5063297;28;20500;-48
2022/02/15 05:37:12;;;;;;;1.63;0.40;;;;;;;;;;5062491;28;20045;-46
2022/02/15 05:39:39;;;;;;;1.42;0.50;;;;;;;;;;5059956;28;20023;-54
2022/02/15 05:42:05;;;;;;;1.73;0.50;;;;;;;;;;5063835;28;20040;-47
2022/02/15 05:44:31;;;;;;;0.57;0.40;;;;;;;;;;5062467;28;20032;-45
2022/02/15 05:46:57;;;;;;;2.08;0.50;;;;;;;;;;5059722;28;20013;-49
2022/02/15 05:49:23;;;;;;;1.10;0.52;;;;;;;;;;5061790;28;20070;-49
2022/02/15 05:51:49;;;;;;;1.45;0.50;;;;;;;;;;5061550;28;20028;-46
2022/02/15 05:54:16;;;;;;;1.55;0.40;;;;;;;;;;5062455;28;20039;-46
2022/02/15 05:56:42;;;;;;;0.85;0.60;;;;;;;;;;5059924;28;20021;-45
2022/02/15 05:59:08;;;;;;;0.60;0.40;;;;;;;;;;5058379;28;20433;-45
2022/02/15 06:01:34;;;;;;;1.15;0.40;;;;;;;;;;5064532;28;20064;-46
2022/02/15 06:04:12;;;;;;;0.93;0.40;;;;;;;;;;5062491;28;20094;-49
2022/02/15 06:06:39;;;;;;;1.77;0.55;;;;;;;;;;5059708;28;20116;-54
2022/02/15 06:09:05;;;;;;;2.15;0.77;;;;;;;;;;5061281;28;20440;-46
2022/02/15 06:11:31;;;;;;;0.45;0.40;;;;;;;;;;5064799;28;20108;-50
2022/02/15 06:13:57;;;;;;;1.02;0.40;;;;;;;;;;5066117;28;20017;-48
2022/02/15 06:16:24;;;;;;;1.05;0.30;;;;;;;;;;5071467;28;20051;-47
2022/02/15 06:18:50;;;;;;;0.63;0.40;;;;;;;;;;5070629;28;20095;-49
2022/02/15 06:21:17;;;;;;;1.92;0.45;;;;;;;;;;5071661;28;20047;-48
2022/02/15 06:23:43;;;;;;;2.92;0.70;;;;;;;;;;5071616;28;20032;-48
2022/02/15 06:26:09;;;;;;;0.50;0.40;;;;;;;;;;5072144;28;20027;-49
2022/02/15 06:28:35;;;;;;;0.68;0.40;;;;;;;;;;5072045;28;20027;-47
2022/02/15 06:31:01;;;;;;;1.30;0.30;;;;;;;;;;5070208;28;20036;-47
2022/02/15 06:33:27;;;;;;;2.58;0.73;;;;;;;;;;5072003;28;20462;-49
2022/02/15 06:35:53;;;;;;;0.45;0.40;;;;;;;;;;5071211;28;20086;-47
2022/02/15 06:38:19;;;;;;;1.10;0.40;;;;;;;;;;5072212;28;20059;-53
2022/02/15 06:40:45;;;;;;;0.68;0.40;;;;;;;;;;5070562;28;20020;-50
2022/02/15 06:43:11;;;;;;;0.63;0.50;;;;;;;;;;5071866;28;20028;-48
2022/02/15 06:45:38;;;;;;;0.55;0.40;;;;;;;;;;5071733;28;20428;-55
2022/02/15 06:48:04;;;;;;;13.25;0.85;;;;;;;;;;5071776;28;20016;-46
2022/02/15 06:50:30;;;;;;;0.88;0.40;;;;;;;;;;5071663;28;20103;-47
2022/02/15 06:52:56;;;;;;;2.72;0.77;;;;;;;;;;5071082;28;20060;-47
2022/02/15 06:55:22;;;;;;;2.90;0.40;;;;;;;;;;5071814;28;20028;-49
2022/02/15 06:57:51;;;;;;;2.58;0.50;;;;;;;;;;5070856;28;20020;-46
2022/02/15 07:00:17;;;;;;;1.30;0.50;;;;;;;;;;5071306;28;20037;-48
2022/02/15 07:02:44;;;;;;;3.08;0.60;;;;;;;;;;5070871;28;20098;-46
2022/02/15 07:05:10;;;;;;;1.52;0.52;;;;;;;;;;5071529;28;20377;-47
2022/02/15 07:07:36;;;;;;;3.35;1.20;;;;;;;;;;5071253;28;20025;-49
2022/02/15 07:10:02;;;;;;;3.38;0.82;;;;;;;;;;5070278;28;20407;-50
2022/02/15 07:12:28;;;;;;;6.07;0.98;;;;;;;;;;5071552;28;20029;-48
2022/02/15 07:14:54;;;;;;;3.67;1.00;;;;;;;;;;5069942;28;20028;-47
2022/02/15 07:17:20;;;;;;;1.98;0.95;;;;;;;;;;5071383;28;20364;-47
2022/02/15 07:19:46;;;;;;;3.50;0.70;;;;;;;;;;5069351;28;20027;-49
2022/02/15 07:22:12;;;;;;;2.92;0.85;;;;;;;;;;5071193;28;20025;-48
2022/02/15 07:24:40;;;;;;;3.85;1.10;;;;;;;;;;5067036;28;20028;-55
2022/02/15 07:27:06;;;;;;;3.15;0.90;;;;;;;;;;5064445;28;20477;-47
2022/02/15 07:29:32;;;;;;;6.10;1.10;;;;;;;;;;5055932;28;20052;-49
2022/02/15 07:31:58;;;;;;;4.43;1.10;;;;;;;;;;5070811;28;20040;-48
2022/02/15 07:34:24;;;;;;;3.60;0.88;;;;;;;;;;5072277;28;20036;-47
2022/02/15 07:36:51;;;;;;;4.18;0.95;;;;;;;;;;5070182;28;20405;-48
2022/02/15 07:39:17;;;;;;;6.32;1.48;;;;;;;;;;5070915;28;20029;-47
2022/02/15 07:41:43;;;;;;;3.83;0.80;;;;;;;;;;5070840;28;20032;-47
2022/02/15 07:44:09;;;;;;;3.28;1.35;;;;;;;;;;5074986;28;20021;-51
2022/02/15 07:46:35;;;;;;;1.92;0.95;;;;;;;;;;5074940;28;20028;-49
2022/02/15 07:49:01;;;;;;;3.25;0.90;;;;;;;;;;5074231;28;20016;-47
2022/02/15 07:51:27;;;;;;;4.47;1.20;;;;;;;;;;5074514;28;20075;-49
2022/02/15 07:53:53;;;;;;;6.38;1.27;;;;;;;;;;5073871;28;20072;-47
2022/02/15 07:56:19;;;;;;;5.45;0.70;;;;;;;;;;5073836;28;20082;-48
2022/02/15 07:58:45;;;;;;;2.97;0.80;;;;;;;;;;5069034;28;20033;-47
2022/02/15 08:01:11;;;;;;;2.88;0.98;;;;;;;;;;5074105;28;20025;-48
2022/02/15 08:03:38;;;;;;;5.10;1.10;;;;;;;;;;5073770;28;20426;-49
2022/02/15 08:06:04;;;;;;;3.80;0.80;;;;;;;;;;5072972;28;20033;-48
2022/02/15 08:08:30;;;;;;;9.05;1.20;;;;;;;;;;5073488;28;20021;-48
2022/02/15 08:10:57;;;;;;;3.38;0.80;;;;;;;;;;5074010;28;20086;-47
2022/02/15 08:13:24;;;;;;;3.33;0.93;;;;;;;;;;5074044;28;20428;-51
2022/02/15 08:15:50;;;;;;;4.05;0.82;;;;;;;;;;5072798;28;20078;-48
2022/02/15 08:18:17;;;;;;;4.38;0.73;;;;;;;;;;5074179;28;20109;-47
2022/02/15 08:20:43;;;;;;;3.50;1.02;;;;;;;;;;5074321;28;20020;-48
2022/02/15 08:23:12;;;;;;;3.97;1.17;;;;;;;;;;5074593;28;20365;-49
2022/02/15 08:25:38;;;;;;;3.70;0.70;;;;;;;;;;5074578;28;20029;-48
2022/02/15 08:28:04;;;;;;;0.88;0.60;;;;;;;;;;5073911;28;20024;-47
2022/02/15 08:30:30;;;;;;;5.63;1.25;;;;;;;;;;5074734;28;20029;-49
2022/02/15 08:32:56;;;;;;;3.63;0.85;;;;;;;;;;5074154;28;20039;-49
2022/02/15 08:35:22;;;;;;;1.88;0.95;;;;;;;;;;5074414;28;20107;-48
2022/02/15 08:37:51;;;;;;;2.58;1.10;;;;;;;;;;5074096;28;20123;-48
2022/02/15 08:40:18;;;;;;;2.80;0.68;;;;;;;;;;5074872;28;20032;-47
2022/02/15 08:42:44;;;;;;;1.77;0.68;;;;;;;;;;5074020;28;20036;-47
2022/02/15 08:45:11;;;;;;;4.07;1.15;;;;;;;;;;5074387;28;20507;-46
2022/02/15 08:47:37;;;;;;;1.77;0.60;;;;;;;;;;5074152;28;20473;-47
2022/02/15 08:50:04;;;;;;;4.22;0.68;;;;;;;;;;5073892;28;20028;-47
2022/02/15 08:52:30;;;;;;;0.85;0.52;;;;;;;;;;5074450;28;20069;-47
2022/02/15 08:54:57;;;;;;;1.08;0.57;;;;;;;;;;5072760;28;20435;-47
2022/02/15 08:57:23;;;;;;;1.50;0.55;;;;;;;;;;5074138;28;20032;-50
2022/02/15 08:59:53;;;;;;;1.38;0.68;;;;;;;;;;5073807;28;20028;-47
2022/02/15 09:02:22;;;;;;;1.40;0.43;;;;;;;;;;5074321;28;20020;-48
2022/02/15 09:04:48;;;;;;;8.27;0.93;;;;;;;;;;5073635;28;20029;-49
2022/02/15 09:07:14;;;;;;;3.22;0.80;;;;;;;;;;5074341;28;20107;-48
2022/02/15 09:09:40;;;;;;;2.28;0.70;;;;;;;;;;5074150;28;20143;-47
2022/02/15 09:12:06;;;;;;;2.20;0.50;;;;;;;;;;5073964;28;20102;-49
2022/02/15 09:14:32;;;;;;;5.85;0.90;;;;;;;;;;5073939;28;20028;-48
2022/02/15 09:17:00;;;;;;;1.55;0.85;;;;;;;;;;5073267;28;20028;-47
2022/02/15 09:19:26;;;;;;;2.03;0.45;;;;;;;;;;5073926;28;20085;-46
2022/02/15 09:21:53;;;;;;;2.13;0.80;;;;;;;;;;5073295;28;20082;-48
2022/02/15 09:24:19;;;;;;;1.83;1.00;;;;;;;;;;5073682;28;20033;-47
2022/02/15 09:26:45;;;;;;;1.33;0.65;;;;;;;;;;5072803;28;20100;-47
2022/02/15 09:29:11;;;;;;;1.23;0.65;;;;;;;;;;5073275;28;20064;-48
2022/02/15 09:31:38;;;;;;;1.52;0.50;;;;;;;;;;5073543;28;20024;-47
2022/02/15 09:34:04;;;;;;;1.73;0.57;;;;;;;;;;5072909;28;20343;-47
2022/02/15 09:36:30;;;;;;;0.77;0.60;;;;;;;;;;5073405;28;20028;-48
2022/02/15 09:38:56;;;;;;;1.92;0.52;;;;;;;;;;5072725;28;20031;-47
2022/02/15 09:41:22;;;;;;;1.65;0.80;;;;;;;;;;5073524;28;20031;-50
2022/02/15 09:43:49;;;;;;;0.80;0.57;;;;;;;;;;5060745;28;20052;-48
2022/02/15 09:46:15;;;;;;;0.75;0.60;;;;;;;;;;5053482;28;20040;-48
2022/02/15 09:48:42;;;;;;;0.88;0.40;;;;;;;;;;5052805;28;20021;-51
2022/02/15 09:51:09;;;;;;;0.30;0.30;;;;;;;;;;5053265;28;20086;-50
2022/02/15 09:53:36;;;;;;;2.38;0.77;;;;;;;;;;5052803;28;20036;-49
2022/02/15 09:56:03;;;;;;;1.88;0.57;;;;;;;;;;5052634;28;20124;-48
2022/02/15 09:58:29;;;;;;;1.45;0.47;;;;;;;;;;5052782;28;20029;-48
2022/02/15 10:00:55;;;;;;;1.40;0.30;;;;;;;;;;5052437;28;20466;-50
2022/02/15 10:03:21;;;;;;;2.08;0.50;;;;;;;;;;5052795;28;20029;-49
2022/02/15 10:05:48;;;;;;;1.95;0.80;;;;;;;;;;5052229;28;20033;-48
2022/02/15 10:08:14;;;;;;;1.27;0.60;;;;;;;;;;5052949;28;20035;-47
2022/02/15 10:10:40;;;;;;;0.88;0.32;;;;;;;;;;5052848;28;20063;-48
2022/02/15 10:13:08;;;;;;;1.88;0.40;;;;;;;;;;5051998;28;20060;-48
2022/02/15 10:15:35;;;;;;;0.38;0.20;;;;;;;;;;5052555;28;20029;-47
2022/02/15 10:18:05;;;;;;;1.05;0.50;;;;;;;;;;5052263;28;20021;-47
2022/02/15 10:20:32;;;;;;;1.38;0.50;;;;;;;;;;5052924;28;20100;-49
2022/02/15 10:23:13;;;;;;;1.35;1.02;;;;;;;;;;5052201;28;20025;-47
2022/02/15 10:25:39;;;;;;;1.65;0.60;;;;;;;;;;5052688;28;20104;-50
2022/02/15 10:28:15;;;;;;;0.85;0.60;;;;;;;;;;5052337;28;20366;-48
2022/02/15 10:31:01;;;;;;;0.63;0.50;;;;;;;;;;5052664;28;20033;-48
2022/02/15 10:33:33;;;;;;;1.88;0.55;;;;;;;;;;5052602;28;20040;-49
2022/02/15 10:36:00;;;;;;;1.15;0.65;;;;;;;;;;5051887;28;20449;-47
2022/02/15 10:38:30;;;;;;;0.45;0.40;;;;;;;;;;5052159;28;20051;-49
2022/02/15 10:40:57;;;;;;;0.70;0.30;;;;;;;;;;5051750;28;20397;-47
2022/02/15 10:43:23;;;;;;;0.95;0.40;;;;;;;;;;5060768;28;20074;-48
2022/02/15 10:45:49;;;;;;;0.98;0.40;;;;;;;;;;5071764;28;20033;-46
2022/02/15 10:48:15;;;;;;;0.75;0.40;;;;;;;;;;5072401;28;20099;-48
2022/02/15 10:50:41;;;;;;;0.55;0.40;;;;;;;;;;5072162;28;20025;-47
2022/02/15 10:53:07;;;;;;;0.70;0.40;;;;;;;;;;5071485;28;20053;-49
2022/02/15 10:55:34;;;;;;;1.00;0.40;;;;;;;;;;5072203;28;20032;-49
2022/02/15 10:58:01;;;;;;;0.40;0.30;;;;;;;;;;5071619;28;20082;-49
2022/02/15 11:00:27;;;;;;;0.73;0.50;;;;;;;;;;5072342;28;20056;-51
2022/02/15 11:02:53;;;;;;;0.80;0.40;;;;;;;;;;5071775;28;20500;-50
2022/02/15 11:05:20;;;;;;;1.58;0.38;;;;;;;;;;5072175;28;20116;-49
2022/02/15 11:07:46;;;;;;;2.03;0.40;;;;;;;;;;5071827;28;20188;-56
2022/02/15 11:10:21;;;;;;;2.40;0.50;;;;;;;;;;5072227;28;20024;-49
2022/02/15 11:12:47;;;;;;;1.13;0.45;;;;;;;;;;5071651;28;20032;-50
2022/02/15 11:15:19;;;;;;;0.65;0.50;;;;;;;;;;5071946;28;20115;-50
2022/02/15 11:17:49;;;;;;;0.40;0.40;;;;;;;;;;5074754;28;20021;-50
2022/02/15 11:20:16;;;;;;;0.98;0.30;;;;;;;;;;5076088;28;20154;-51
2022/02/15 11:22:43;;;;;;;0.57;0.47;;;;;;;;;;5076209;28;20027;-54
2022/02/15 11:25:09;;;;;;;0.88;0.40;;;;;;;;;;5075476;28;20024;-46
2022/02/15 11:27:35;;;;;;;0.75;0.52;;;;;;;;;;5076126;28;20028;-47
2022/02/15 11:30:02;;;;;;;0.43;0.40;;;;;;;;;;5075449;28;20033;-46
2022/02/15 11:32:29;;;;;;;1.45;0.35;;;;;;;;;;5076163;28;20017;-46
2022/02/15 11:34:56;;;;;;;1.50;0.32;;;;;;;;;;5075094;28;20454;-47
2022/02/15 11:37:23;;;;;;;1.35;0.50;;;;;;;;;;5075962;28;20132;-49
2022/02/15 11:40:05;;;;;;;0.30;0.30;;;;;;;;;;5075229;28;20416;-48
2022/02/15 11:42:40;;;;;;;1.73;0.30;;;;;;;;;;5074590;28;20052;-48
2022/02/15 11:45:15;;;;;;;0.43;0.38;;;;;;;;;;5055275;28;20039;-47
2022/02/15 11:47:45;;;;;;;0.55;0.38;;;;;;;;;;5055744;28;20492;-51
2022/02/15 11:50:14;;;;;;;0.40;0.30;;;;;;;;;;5054945;28;20438;-46
2022/02/15 11:52:40;;;;;;;0.95;0.50;;;;;;;;;;5055555;28;20013;-48
2022/02/15 11:55:07;;;;;;;0.32;0.30;;;;;;;;;;5054762;28;20110;-49
2022/02/15 11:57:34;;;;;;;0.47;0.30;;;;;;;;;;5055038;28;20478;-47
2022/02/15 12:00:00;;;;;;;0.75;0.50;;;;;;;;;;5054963;28;20067;-47
2022/02/15 12:02:26;;;;;;;0.20;0.20;;;;;;;;;;5055357;28;20032;-46
2022/02/15 12:04:59;;;;;;;0.70;0.50;;;;;;;;;;5054494;28;20036;-50
2022/02/15 12:07:26;;;;;;;0.25;0.25;;;;;;;;;;5055260;28;20017;-48
2022/02/15 12:09:54;;;;;;;0.63;0.32;;;;;;;;;;5054584;28;20040;-49
2022/02/15 12:12:20;;;;;;;0.55;0.30;;;;;;;;;;5055048;28;20061;-51
2022/02/15 12:14:55;;;;;;;0.80;0.50;;;;;;;;;;5055124;28;20064;-49
2022/02/15 12:17:23;;;;;;;0.70;0.35;;;;;;;;;;5054939;28;20070;-50
2022/02/15 12:19:54;;;;;;;0.30;0.30;;;;;;;;;;5054653;28;20025;-50
2022/02/15 12:22:21;;;;;;;0.40;0.40;;;;;;;;;;5054827;28;20561;-51
2022/02/15 12:24:51;;;;;;;0.60;0.50;;;;;;;;;;5055115;28;20025;-46
2022/02/15 12:27:17;;;;;;;1.13;0.35;;;;;;;;;;5055300;28;20462;-48
2022/02/15 12:29:43;;;;;;;1.00;0.32;;;;;;;;;;5053892;28;20028;-49
2022/02/15 12:32:09;;;;;;;1.00;0.40;;;;;;;;;;5054170;28;20600;-48
2022/02/15 12:34:35;;;;;;;0.38;0.20;;;;;;;;;;5054745;28;20083;-46
2022/02/15 12:37:02;;;;;;;2.65;0.55;;;;;;;;;;5053584;28;20055;-47
2022/02/15 12:39:32;;;;;;;1.40;0.30;;;;;;;;;;5054616;28;20079;-46
2022/02/15 12:41:58;;;;;;;0.63;0.63;;;;;;;;;;5054084;28;20025;-48
2022/02/15 12:44:25;;;;;;;0.30;0.30;;;;;;;;;;5071440;28;20060;-50
2022/02/15 12:46:51;;;;;;;2.42;0.93;;;;;;;;;;5073940;28;20047;-47
2022/02/15 12:49:17;;;;;;;0.20;0.20;;;;;;;;;;5056669;28;20354;-46
2022/02/15 12:51:46;;;;;;;0.60;0.30;;;;;;;;;;5074291;28;20033;-46
2022/02/15 12:54:17;;;;;;;0.70;0.40;;;;;;;;;;5074113;28;20100;-48
2022/02/15 12:56:43;;;;;;;0.40;0.40;;;;;;;;;;5074447;28;20065;-50
2022/02/15 12:59:09;;;;;;;1.02;0.30;;;;;;;;;;5073905;28;20038;-47
2022/02/15 13:01:36;;;;;;;0.28;0.28;;;;;;;;;;5074221;28;20036;-47
2022/02/15 13:04:04;;;;;;;0.50;0.40;;;;;;;;;;5073555;28;20371;-49
2022/02/15 13:06:30;;;;;;;0.82;0.30;;;;;;;;;;5074213;28;20052;-51
2022/02/15 13:08:57;;;;;;;0.63;0.28;;;;;;;;;;5073965;28;20101;-47
2022/02/15 13:11:26;;;;;;;0.22;0.20;;;;;;;;;;5074320;28;20017;-47
2022/02/15 13:13:53;;;;;;;0.30;0.30;;;;;;;;;;5073602;28;20086;-47
2022/02/15 13:16:19;;;;;;;0.30;0.22;;;;;;;;;;5073977;28;20032;-50
2022/02/15 13:18:47;;;;;;;0.75;0.30;;;;;;;;;;5074010;28;20028;-47
2022/02/15 13:21:14;;;;;;;1.02;0.30;;;;;;;;;;5072994;28;20025;-48
2022/02/15 13:23:52;;;;;;;0.88;0.30;;;;;;;;;;5073950;28;20024;-47
2022/02/15 13:26:18;;;;;;;1.08;0.40;;;;;;;;;;5074208;28;20029;-48
2022/02/15 13:28:45;;;;;;;0.28;0.20;;;;;;;;;;5073424;28;20483;-48
2022/02/15 13:31:11;;;;;;;0.38;0.25;;;;;;;;;;5073021;28;20473;-47
2022/02/15 13:33:46;;;;;;;0.75;0.45;;;;;;;;;;5073491;28;20024;-47
2022/02/15 13:36:12;;;;;;;0.32;0.20;;;;;;;;;;5072820;28;20028;-47
2022/02/15 13:38:38;;;;;;;1.35;0.30;;;;;;;;;;5073651;28;20052;-47
2022/02/15 13:41:05;;;;;;;0.50;0.40;;;;;;;;;;5072362;28;20072;-47
2022/02/15 13:43:33;;;;;;;1.38;0.50;;;;;;;;;;5063917;28;20194;-47
2022/02/15 13:45:59;;;;;;;0.60;0.52;;;;;;;;;;5052953;28;20033;-47
2022/02/15 13:48:25;;;;;;;0.40;0.30;;;;;;;;;;5053125;28;20497;-48
2022/02/15 13:51:01;;;;;;;1.23;0.70;;;;;;;;;;5053261;28;20036;-56
2022/02/15 13:53:27;;;;;;;0.40;0.32;;;;;;;;;;5053199;28;20106;-49
2022/02/15 13:55:53;;;;;;;0.60;0.60;;;;;;;;;;5052701;28;20072;-47
2022/02/15 13:58:19;;;;;;;1.60;0.20;;;;;;;;;;5053336;28;20029;-47
2022/02/15 14:00:45;;;;;;;0.65;0.30;;;;;;;;;;5053296;28;20032;-48
2022/02/15 14:03:11;;;;;;;0.38;0.32;;;;;;;;;;5052612;28;20053;-49
2022/02/15 14:05:37;;;;;;;0.70;0.43;;;;;;;;;;5052887;28;20063;-48
2022/02/15 14:08:04;;;;;;;0.20;0.20;;;;;;;;;;5052262;28;20025;-47
2022/02/15 14:10:30;;;;;;;0.30;0.30;;;;;;;;;;5052733;28;20064;-46
2022/02/15 14:12:57;;;;;;;0.68;0.40;;;;;;;;;;5051781;28;20021;-47
2022/02/15 14:15:28;;;;;;;0.40;0.30;;;;;;;;;;5052928;28;20044;-47
2022/02/15 14:17:57;;;;;;;0.40;0.30;;;;;;;;;;5052212;28;20025;-46
2022/02/15 14:20:24;;;;;;;0.20;0.20;;;;;;;;;;5053083;28;20455;-47
2022/02/15 14:22:50;;;;;;;0.80;0.30;;;;;;;;;;5052752;28;20024;-46
2022/02/15 14:25:17;;;;;;;1.35;0.40;;;;;;;;;;5052513;28;20032;-48
2022/02/15 14:27:44;;;;;;;0.35;0.28;;;;;;;;;;5052520;28;20024;-46
2022/02/15 14:30:14;;;;;;;0.65;0.43;;;;;;;;;;5052067;28;20036;-46
2022/02/15 14:32:40;;;;;;;0.38;0.25;;;;;;;;;;5052798;28;20366;-47
2022/02/15 14:35:07;;;;;;;0.43;0.25;;;;;;;;;;5051944;28;20119;-46
2022/02/15 14:37:34;;;;;;;0.40;0.20;;;;;;;;;;5052515;28;20490;-47
2022/02/15 14:40:00;;;;;;;1.77;0.63;;;;;;;;;;5051801;28;20024;-46
2022/02/15 14:42:26;;;;;;;0.20;0.20;;;;;;;;;;5053021;28;20028;-47
2022/02/15 14:44:52;;;;;;;1.25;0.40;;;;;;;;;;5072202;28;20021;-56
2022/02/15 14:47:18;;;;;;;0.40;0.38;;;;;;;;;;5072495;28;20381;-47